KCCB

Cable Airport

Upland, California, USA
METAR KCCB 141635Z AUTO 00000KT 10SM CLR 15/M08 A3021 RMK AO2
Observed Flight Rules
Dec-14 @ 16:35 UTC (28 minutes ago) Visual Flight Rules
Visibility Clouds
10 miles
  • Clear skies
Temperatures Readings
Current 15°C / 59°F
Dewpoint -8°C / 18°F
Humidity 20%
Altimeter 30.21" Hg
Pressure 1023 hPa
Elevation 440
METAR KCCB 141635Z AUTO 00000KT 10SM CLR 15/M08 A3021 RMK AO2
Observed Flight Rules
Dec-14 @ 16:35 UTC
(28 minutes ago)
VFR
Clouds
  • Clear skies
Temperature Dewpoint
15°C / 59°F -8°C / 18°F
Humidity Altimeter Pressure
20% 30.21" Hg 1023 hPa